sensor_id;sensor_type;location;lat;lon;timestamp;temperature;humidity
3684;DHT22;1858;48.716;9.648;2023-07-13T00:01:48;21.70;99.90
3684;DHT22;1858;48.716;9.648;2023-07-13T00:04:17;21.70;99.90
3684;DHT22;1858;48.716;9.648;2023-07-13T00:06:47;21.80;99.90
3684;DHT22;1858;48.716;9.648;2023-07-13T00:09:14;21.80;99.90
3684;DHT22;1858;48.716;9.648;2023-07-13T00:11:43;21.80;99.90
3684;DHT22;1858;48.716;9.648;2023-07-13T00:14:12;21.80;99.90
3684;DHT22;1858;48.716;9.648;2023-07-13T00:16:42;21.80;99.90
3684;DHT22;1858;48.716;9.648;2023-07-13T00:19:11;21.80;99.90
3684;DHT22;1858;48.716;9.648;2023-07-13T00:21:39;21.80;99.90
3684;DHT22;1858;48.716;9.648;2023-07-13T00:24:07;21.80;99.90
3684;DHT22;1858;48.716;9.648;2023-07-13T00:26:35;21.70;99.90
3684;DHT22;1858;48.716;9.648;2023-07-13T00:29:03;21.60;99.90
3684;DHT22;1858;48.716;9.648;2023-07-13T00:31:32;21.60;99.90
3684;DHT22;1858;48.716;9.648;2023-07-13T00:34:00;21.50;99.90
3684;DHT22;1858;48.716;9.648;2023-07-13T00:39:20;21.30;99.90
3684;DHT22;1858;48.716;9.648;2023-07-13T00:41:47;21.10;99.90
3684;DHT22;1858;48.716;9.648;2023-07-13T00:44:16;21.00;99.90
3684;DHT22;1858;48.716;9.648;2023-07-13T00:46:45;20.80;99.90
3684;DHT22;1858;48.716;9.648;2023-07-13T00:49:16;20.70;99.90
3684;DHT22;1858;48.716;9.648;2023-07-13T00:51:44;20.70;99.90
3684;DHT22;1858;48.716;9.648;2023-07-13T00:54:14;20.70;99.90
3684;DHT22;1858;48.716;9.648;2023-07-13T00:56:43;20.70;99.90
3684;DHT22;1858;48.716;9.648;2023-07-13T00:59:12;20.80;99.90
3684;DHT22;1858;48.716;9.648;2023-07-13T01:01:40;20.80;99.90
3684;DHT22;1858;48.716;9.648;2023-07-13T01:04:08;20.90;99.90
3684;DHT22;1858;48.716;9.648;2023-07-13T01:06:36;20.70;99.90
3684;DHT22;1858;48.716;9.648;2023-07-13T01:09:04;20.70;99.90
3684;DHT22;1858;48.716;9.648;2023-07-13T01:11:32;20.80;99.90
3684;DHT22;1858;48.716;9.648;2023-07-13T01:13:59;20.80;99.90
3684;DHT22;1858;48.716;9.648;2023-07-13T01:16:28;20.80;99.90
3684;DHT22;1858;48.716;9.648;2023-07-13T01:18:56;20.70;99.90
3684;DHT22;1858;48.716;9.648;2023-07-13T01:21:25;20.80;99.90
3684;DHT22;1858;48.716;9.648;2023-07-13T01:26:39;20.50;99.70
3684;DHT22;1858;48.716;9.648;2023-07-13T01:29:07;20.60;82.20
3684;DHT22;1858;48.716;9.648;2023-07-13T01:31:35;20.50;78.40
3684;DHT22;1858;48.716;9.648;2023-07-13T01:34:02;20.60;62.90
3684;DHT22;1858;48.716;9.648;2023-07-13T01:36:30;20.60;43.20
3684;DHT22;1858;48.716;9.648;2023-07-13T01:38:57;20.70;37.10
3684;DHT22;1858;48.716;9.648;2023-07-13T01:41:25;20.60;35.00
3684;DHT22;1858;48.716;9.648;2023-07-13T01:43:52;20.70;22.00
3684;DHT22;1858;48.716;9.648;2023-07-13T01:46:22;20.70;21.20
3684;DHT22;1858;48.716;9.648;2023-07-13T01:48:49;20.60;30.60
3684;DHT22;1858;48.716;9.648;2023-07-13T01:51:17;20.50;32.30
3684;DHT22;1858;48.716;9.648;2023-07-13T01:53:46;20.50;29.90
3684;DHT22;1858;48.716;9.648;2023-07-13T01:56:14;20.50;26.80
3684;DHT22;1858;48.716;9.648;2023-07-13T01:58:41;20.30;32.30
3684;DHT22;1858;48.716;9.648;2023-07-13T02:01:09;20.10;34.10
3684;DHT22;1858;48.716;9.648;2023-07-13T02:03:37;20.10;35.70
3684;DHT22;1858;48.716;9.648;2023-07-13T02:06:04;20.10;33.10
3684;DHT22;1858;48.716;9.648;2023-07-13T02:08:33;20.00;33.30
3684;DHT22;1858;48.716;9.648;2023-07-13T02:11:02;19.80;42.40
3684;DHT22;1858;48.716;9.648;2023-07-13T02:13:30;19.80;46.00
3684;DHT22;1858;48.716;9.648;2023-07-13T02:15:57;19.80;44.50
3684;DHT22;1858;48.716;9.648;2023-07-13T02:18:25;19.70;48.60
3684;DHT22;1858;48.716;9.648;2023-07-13T02:20:53;19.80;48.80
3684;DHT22;1858;48.716;9.648;2023-07-13T02:23:20;19.80;43.10
3684;DHT22;1858;48.716;9.648;2023-07-13T02:25:48;19.70;49.60
3684;DHT22;1858;48.716;9.648;2023-07-13T02:31:09;19.90;57.70
3684;DHT22;1858;48.716;9.648;2023-07-13T02:33:37;20.00;82.40
3684;DHT22;1858;48.716;9.648;2023-07-13T02:36:06;19.90;76.20
3684;DHT22;1858;48.716;9.648;2023-07-13T02:38:34;19.90;76.50
3684;DHT22;1858;48.716;9.648;2023-07-13T02:41:03;19.90;90.60
3684;DHT22;1858;48.716;9.648;2023-07-13T02:43:51;20.00;99.90
3684;DHT22;1858;48.716;9.648;2023-07-13T02:46:18;20.10;99.90
3684;DHT22;1858;48.716;9.648;2023-07-13T02:48:46;20.10;99.90
3684;DHT22;1858;48.716;9.648;2023-07-13T02:51:13;20.10;99.90
3684;DHT22;1858;48.716;9.648;2023-07-13T02:53:41;20.00;99.90
3684;DHT22;1858;48.716;9.648;2023-07-13T02:56:09;20.00;99.90
3684;DHT22;1858;48.716;9.648;2023-07-13T02:58:36;19.90;99.90
3684;DHT22;1858;48.716;9.648;2023-07-13T03:03:52;19.90;99.90
3684;DHT22;1858;48.716;9.648;2023-07-13T03:06:20;19.90;99.90
3684;DHT22;1858;48.716;9.648;2023-07-13T03:08:48;19.80;99.90
3684;DHT22;1858;48.716;9.648;2023-07-13T03:11:19;19.70;99.90
3684;DHT22;1858;48.716;9.648;2023-07-13T03:13:48;19.60;99.90
3684;DHT22;1858;48.716;9.648;2023-07-13T03:16:16;19.50;99.90
3684;DHT22;1858;48.716;9.648;2023-07-13T03:18:45;19.50;99.90
3684;DHT22;1858;48.716;9.648;2023-07-13T03:21:13;19.50;99.90
3684;DHT22;1858;48.716;9.648;2023-07-13T03:23:41;19.40;99.90
3684;DHT22;1858;48.716;9.648;2023-07-13T03:26:10;19.30;99.90
3684;DHT22;1858;48.716;9.648;2023-07-13T03:31:27;19.10;99.90
3684;DHT22;1858;48.716;9.648;2023-07-13T03:33:56;19.00;99.90
3684;DHT22;1858;48.716;9.648;2023-07-13T03:36:26;18.90;99.90
3684;DHT22;1858;48.716;9.648;2023-07-13T03:38:55;18.90;99.90
3684;DHT22;1858;48.716;9.648;2023-07-13T03:41:24;18.80;99.90
3684;DHT22;1858;48.716;9.648;2023-07-13T03:43:52;18.80;99.90
3684;DHT22;1858;48.716;9.648;2023-07-13T03:46:19;18.80;99.90
3684;DHT22;1858;48.716;9.648;2023-07-13T03:48:47;18.80;99.90
3684;DHT22;1858;48.716;9.648;2023-07-13T03:51:15;18.70;99.90
3684;DHT22;1858;48.716;9.648;2023-07-13T03:53:44;18.80;99.90
3684;DHT22;1858;48.716;9.648;2023-07-13T03:56:12;18.80;99.90
3684;DHT22;1858;48.716;9.648;2023-07-13T03:58:42;18.70;99.90
3684;DHT22;1858;48.716;9.648;2023-07-13T04:01:11;18.70;99.90
3684;DHT22;1858;48.716;9.648;2023-07-13T04:03:40;18.70;99.90
3684;DHT22;1858;48.716;9.648;2023-07-13T04:06:12;18.70;99.90
3684;DHT22;1858;48.716;9.648;2023-07-13T04:08:37;18.70;99.90
3684;DHT22;1858;48.716;9.648;2023-07-13T04:11:05;18.80;99.90
3684;DHT22;1858;48.716;9.648;2023-07-13T04:13:35;18.90;99.90
3684;DHT22;1858;48.716;9.648;2023-07-13T04:16:05;19.10;99.90
3684;DHT22;1858;48.716;9.648;2023-07-13T04:19:12;19.10;99.90
3684;DHT22;1858;48.716;9.648;2023-07-13T04:21:40;19.10;99.90
3684;DHT22;1858;48.716;9.648;2023-07-13T04:24:09;19.20;99.90
3684;DHT22;1858;48.716;9.648;2023-07-13T04:26:38;19.30;99.90
3684;DHT22;1858;48.716;9.648;2023-07-13T04:29:07;19.30;99.90
3684;DHT22;1858;48.716;9.648;2023-07-13T04:31:35;19.30;99.90
3684;DHT22;1858;48.716;9.648;2023-07-13T04:34:24;19.40;99.90
3684;DHT22;1858;48.716;9.648;2023-07-13T04:36:52;19.40;99.90
3684;DHT22;1858;48.716;9.648;2023-07-13T04:39:19;19.40;99.90
3684;DHT22;1858;48.716;9.648;2023-07-13T04:44:34;19.40;99.90
3684;DHT22;1858;48.716;9.648;2023-07-13T04:47:02;19.50;99.90
3684;DHT22;1858;48.716;9.648;2023-07-13T04:49:30;19.60;99.90
3684;DHT22;1858;48.716;9.648;2023-07-13T04:51:57;19.70;99.90
3684;DHT22;1858;48.716;9.648;2023-07-13T04:54:25;19.70;99.90
3684;DHT22;1858;48.716;9.648;2023-07-13T04:56:53;19.80;99.90
3684;DHT22;1858;48.716;9.648;2023-07-13T04:59:21;19.80;99.90
3684;DHT22;1858;48.716;9.648;2023-07-13T05:01:49;19.90;99.90
3684;DHT22;1858;48.716;9.648;2023-07-13T05:04:16;20.00;99.90
3684;DHT22;1858;48.716;9.648;2023-07-13T05:06:44;20.00;99.90
3684;DHT22;1858;48.716;9.648;2023-07-13T05:09:12;20.10;99.90
3684;DHT22;1858;48.716;9.648;2023-07-13T05:11:39;20.10;99.90
3684;DHT22;1858;48.716;9.648;2023-07-13T05:14:07;20.10;99.90
3684;DHT22;1858;48.716;9.648;2023-07-13T05:16:36;20.10;99.90
3684;DHT22;1858;48.716;9.648;2023-07-13T05:19:04;20.10;99.90
3684;DHT22;1858;48.716;9.648;2023-07-13T05:21:31;20.20;99.90
3684;DHT22;1858;48.716;9.648;2023-07-13T05:23:59;20.20;99.90
3684;DHT22;1858;48.716;9.648;2023-07-13T05:26:27;20.30;99.90
3684;DHT22;1858;48.716;9.648;2023-07-13T05:31:41;20.40;99.90
3684;DHT22;1858;48.716;9.648;2023-07-13T05:34:09;20.50;99.90
3684;DHT22;1858;48.716;9.648;2023-07-13T05:36:36;20.50;99.90
3684;DHT22;1858;48.716;9.648;2023-07-13T05:39:04;20.60;99.90
3684;DHT22;1858;48.716;9.648;2023-07-13T05:41:32;20.60;99.90
3684;DHT22;1858;48.716;9.648;2023-07-13T05:43:59;20.60;99.90
3684;DHT22;1858;48.716;9.648;2023-07-13T05:46:27;20.70;93.30
3684;DHT22;1858;48.716;9.648;2023-07-13T05:48:54;20.80;70.60
3684;DHT22;1858;48.716;9.648;2023-07-13T05:51:22;20.90;56.30
3684;DHT22;1858;48.716;9.648;2023-07-13T05:53:49;21.00;64.30
3684;DHT22;1858;48.716;9.648;2023-07-13T05:56:17;21.10;57.90
3684;DHT22;1858;48.716;9.648;2023-07-13T05:58:45;21.00;39.70
3684;DHT22;1858;48.716;9.648;2023-07-13T06:01:13;20.90;59.30
3684;DHT22;1858;48.716;9.648;2023-07-13T06:03:41;21.00;69.40
3684;DHT22;1858;48.716;9.648;2023-07-13T06:06:09;21.20;74.00
3684;DHT22;1858;48.716;9.648;2023-07-13T06:08:37;21.20;60.00
3684;DHT22;1858;48.716;9.648;2023-07-13T06:11:07;21.20;39.30
3684;DHT22;1858;48.716;9.648;2023-07-13T06:13:35;21.40;37.60
3684;DHT22;1858;48.716;9.648;2023-07-13T06:16:03;21.20;33.90
3684;DHT22;1858;48.716;9.648;2023-07-13T06:18:31;21.10;14.00
3684;DHT22;1858;48.716;9.648;2023-07-13T06:21:10;20.90;19.30
3684;DHT22;1858;48.716;9.648;2023-07-13T06:23:37;21.30;21.40
3684;DHT22;1858;48.716;9.648;2023-07-13T06:26:06;21.50;11.50
3684;DHT22;1858;48.716;9.648;2023-07-13T06:28:34;21.70;2.20
3684;DHT22;1858;48.716;9.648;2023-07-13T06:31:01;22.00;1.00
3684;DHT22;1858;48.716;9.648;2023-07-13T06:33:29;22.00;1.00
3684;DHT22;1858;48.716;9.648;2023-07-13T06:35:57;22.00;1.00
3684;DHT22;1858;48.716;9.648;2023-07-13T06:38:27;22.30;1.00
3684;DHT22;1858;48.716;9.648;2023-07-13T06:40:55;22.90;1.00
3684;DHT22;1858;48.716;9.648;2023-07-13T06:43:22;23.70;1.00
3684;DHT22;1858;48.716;9.648;2023-07-13T06:45:51;26.10;1.00
3684;DHT22;1858;48.716;9.648;2023-07-13T06:48:20;27.30;1.00
3684;DHT22;1858;48.716;9.648;2023-07-13T06:50:48;28.40;1.00
3684;DHT22;1858;48.716;9.648;2023-07-13T06:53:17;29.90;1.00
3684;DHT22;1858;48.716;9.648;2023-07-13T06:55:45;30.80;1.00
3684;DHT22;1858;48.716;9.648;2023-07-13T06:58:14;31.80;1.00
3684;DHT22;1858;48.716;9.648;2023-07-13T07:00:41;31.80;1.00
3684;DHT22;1858;48.716;9.648;2023-07-13T07:03:09;31.40;1.00
3684;DHT22;1858;48.716;9.648;2023-07-13T07:05:37;30.50;1.00
3684;DHT22;1858;48.716;9.648;2023-07-13T07:08:05;29.50;1.00
3684;DHT22;1858;48.716;9.648;2023-07-13T07:10:34;28.50;1.00
3684;DHT22;1858;48.716;9.648;2023-07-13T07:13:03;28.50;1.00
3684;DHT22;1858;48.716;9.648;2023-07-13T07:15:32;27.70;1.00
3684;DHT22;1858;48.716;9.648;2023-07-13T07:18:02;27.50;1.00
3684;DHT22;1858;48.716;9.648;2023-07-13T07:20:30;28.00;1.00
3684;DHT22;1858;48.716;9.648;2023-07-13T07:22:59;29.60;1.00
3684;DHT22;1858;48.716;9.648;2023-07-13T07:25:27;31.60;1.00
3684;DHT22;1858;48.716;9.648;2023-07-13T07:27:56;32.90;1.00
3684;DHT22;1858;48.716;9.648;2023-07-13T07:30:24;33.50;99.90
3684;DHT22;1858;48.716;9.648;2023-07-13T07:32:51;34.70;99.90
3684;DHT22;1858;48.716;9.648;2023-07-13T07:35:19;36.00;99.90
3684;DHT22;1858;48.716;9.648;2023-07-13T07:37:46;36.10;99.90
3684;DHT22;1858;48.716;9.648;2023-07-13T07:40:14;36.30;99.90
3684;DHT22;1858;48.716;9.648;2023-07-13T07:42:42;35.60;99.90
3684;DHT22;1858;48.716;9.648;2023-07-13T07:45:09;37.00;99.90
3684;DHT22;1858;48.716;9.648;2023-07-13T07:47:39;37.80;99.90
3684;DHT22;1858;48.716;9.648;2023-07-13T07:50:07;38.00;99.90
3684;DHT22;1858;48.716;9.648;2023-07-13T07:52:35;38.40;99.90
3684;DHT22;1858;48.716;9.648;2023-07-13T07:55:03;38.40;99.90
3684;DHT22;1858;48.716;9.648;2023-07-13T07:57:32;38.40;99.90
3684;DHT22;1858;48.716;9.648;2023-07-13T07:59:59;38.10;99.90
3684;DHT22;1858;48.716;9.648;2023-07-13T08:02:27;39.20;99.90
3684;DHT22;1858;48.716;9.648;2023-07-13T08:04:54;40.40;99.90
3684;DHT22;1858;48.716;9.648;2023-07-13T08:07:22;40.20;99.90
3684;DHT22;1858;48.716;9.648;2023-07-13T08:09:53;41.10;99.90
3684;DHT22;1858;48.716;9.648;2023-07-13T08:12:38;41.10;99.90
3684;DHT22;1858;48.716;9.648;2023-07-13T08:15:08;41.90;99.90
3684;DHT22;1858;48.716;9.648;2023-07-13T08:17:36;42.80;99.90
3684;DHT22;1858;48.716;9.648;2023-07-13T08:20:03;42.50;99.90
3684;DHT22;1858;48.716;9.648;2023-07-13T08:22:31;42.00;99.90
3684;DHT22;1858;48.716;9.648;2023-07-13T08:25:05;43.10;99.90
3684;DHT22;1858;48.716;9.648;2023-07-13T08:27:32;44.00;99.90
3684;DHT22;1858;48.716;9.648;2023-07-13T08:30:00;43.00;99.90
3684;DHT22;1858;48.716;9.648;2023-07-13T08:32:29;42.30;99.90
3684;DHT22;1858;48.716;9.648;2023-07-13T08:34:56;42.90;99.90
3684;DHT22;1858;48.716;9.648;2023-07-13T08:37:24;41.00;99.90
3684;DHT22;1858;48.716;9.648;2023-07-13T08:39:51;41.50;99.90
3684;DHT22;1858;48.716;9.648;2023-07-13T08:42:26;41.60;99.90
3684;DHT22;1858;48.716;9.648;2023-07-13T08:45:04;42.90;99.90
3684;DHT22;1858;48.716;9.648;2023-07-13T08:47:30;43.60;99.90
3684;DHT22;1858;48.716;9.648;2023-07-13T08:49:59;44.70;99.90
3684;DHT22;1858;48.716;9.648;2023-07-13T08:52:32;42.70;99.90
3684;DHT22;1858;48.716;9.648;2023-07-13T08:58:15;40.90;99.90
3684;DHT22;1858;48.716;9.648;2023-07-13T09:00:36;40.40;99.90
3684;DHT22;1858;48.716;9.648;2023-07-13T09:03:12;42.00;99.90
3684;DHT22;1858;48.716;9.648;2023-07-13T09:05:42;40.90;99.90
3684;DHT22;1858;48.716;9.648;2023-07-13T09:10:42;42.80;99.90
3684;DHT22;1858;48.716;9.648;2023-07-13T09:13:19;43.50;99.90
3684;DHT22;1858;48.716;9.648;2023-07-13T09:15:45;44.60;99.90
3684;DHT22;1858;48.716;9.648;2023-07-13T09:18:18;45.40;99.90
3684;DHT22;1858;48.716;9.648;2023-07-13T09:21:14;45.70;99.90
3684;DHT22;1858;48.716;9.648;2023-07-13T09:26:29;45.50;99.90
3684;DHT22;1858;48.716;9.648;2023-07-13T09:29:28;44.80;99.90
3684;DHT22;1858;48.716;9.648;2023-07-13T09:34:52;42.60;99.90
3684;DHT22;1858;48.716;9.648;2023-07-13T09:42:56;44.60;99.90
3684;DHT22;1858;48.716;9.648;2023-07-13T09:45:29;43.40;99.90
3684;DHT22;1858;48.716;9.648;2023-07-13T09:48:07;44.20;99.90
3684;DHT22;1858;48.716;9.648;2023-07-13T09:50:58;44.40;99.90
3684;DHT22;1858;48.716;9.648;2023-07-13T09:53:30;45.10;99.90
3684;DHT22;1858;48.716;9.648;2023-07-13T09:55:59;44.20;99.90
3684;DHT22;1858;48.716;9.648;2023-07-13T09:58:29;43.60;99.90
3684;DHT22;1858;48.716;9.648;2023-07-13T10:00:59;43.20;99.90
3684;DHT22;1858;48.716;9.648;2023-07-13T10:03:31;43.30;99.90
3684;DHT22;1858;48.716;9.648;2023-07-13T10:06:13;43.40;99.90
3684;DHT22;1858;48.716;9.648;2023-07-13T10:08:42;42.60;99.90
3684;DHT22;1858;48.716;9.648;2023-07-13T10:11:26;41.20;99.90
3684;DHT22;1858;48.716;9.648;2023-07-13T10:14:01;40.40;99.90
3684;DHT22;1858;48.716;9.648;2023-07-13T10:16:27;39.60;99.90
3684;DHT22;1858;48.716;9.648;2023-07-13T10:18:58;39.90;99.90
3684;DHT22;1858;48.716;9.648;2023-07-13T10:21:32;40.50;99.90
3684;DHT22;1858;48.716;9.648;2023-07-13T10:29:29;36.10;99.90
3684;DHT22;1858;48.716;9.648;2023-07-13T10:32:18;37.50;99.90
3684;DHT22;1858;48.716;9.648;2023-07-13T10:34:48;38.30;99.90
3684;DHT22;1858;48.716;9.648;2023-07-13T10:37:27;39.00;99.90
3684;DHT22;1858;48.716;9.648;2023-07-13T10:39:56;39.50;99.90
3684;DHT22;1858;48.716;9.648;2023-07-13T10:42:30;39.80;99.90
3684;DHT22;1858;48.716;9.648;2023-07-13T10:44:53;41.50;99.90
3684;DHT22;1858;48.716;9.648;2023-07-13T10:47:21;41.10;99.90
3684;DHT22;1858;48.716;9.648;2023-07-13T10:49:53;41.10;99.90
3684;DHT22;1858;48.716;9.648;2023-07-13T10:57:55;39.00;99.90
3684;DHT22;1858;48.716;9.648;2023-07-13T11:00:25;38.70;99.90
3684;DHT22;1858;48.716;9.648;2023-07-13T11:02:59;39.70;99.90
3684;DHT22;1858;48.716;9.648;2023-07-13T11:05:32;39.60;99.90
3684;DHT22;1858;48.716;9.648;2023-07-13T11:08:14;39.40;99.90
3684;DHT22;1858;48.716;9.648;2023-07-13T11:10:46;38.40;99.90
3684;DHT22;1858;48.716;9.648;2023-07-13T11:16:37;38.10;99.90
3684;DHT22;1858;48.716;9.648;2023-07-13T11:19:24;37.00;99.90
3684;DHT22;1858;48.716;9.648;2023-07-13T11:30:48;35.00;99.90
3684;DHT22;1858;48.716;9.648;2023-07-13T11:33:20;34.80;99.90
3684;DHT22;1858;48.716;9.648;2023-07-13T11:35:53;34.10;99.90
3684;DHT22;1858;48.716;9.648;2023-07-13T11:39:01;33.70;99.90
3684;DHT22;1858;48.716;9.648;2023-07-13T11:41:30;33.20;99.90
3684;DHT22;1858;48.716;9.648;2023-07-13T11:46:53;33.00;99.90
3684;DHT22;1858;48.716;9.648;2023-07-13T11:49:29;33.20;99.90
3684;DHT22;1858;48.716;9.648;2023-07-13T11:51:57;32.90;99.90
3684;DHT22;1858;48.716;9.648;2023-07-13T11:54:33;32.70;99.90
3684;DHT22;1858;48.716;9.648;2023-07-13T11:57:11;32.60;99.90
3684;DHT22;1858;48.716;9.648;2023-07-13T11:59:56;32.60;99.90
3684;DHT22;1858;48.716;9.648;2023-07-13T12:02:29;32.50;99.90
3684;DHT22;1858;48.716;9.648;2023-07-13T12:04:57;32.60;99.90
3684;DHT22;1858;48.716;9.648;2023-07-13T12:07:28;32.60;99.90
3684;DHT22;1858;48.716;9.648;2023-07-13T12:10:00;32.60;99.90
3684;DHT22;1858;48.716;9.648;2023-07-13T12:12:28;32.80;99.90
3684;DHT22;1858;48.716;9.648;2023-07-13T12:14:54;32.60;99.90
3684;DHT22;1858;48.716;9.648;2023-07-13T12:17:24;32.00;99.90
3684;DHT22;1858;48.716;9.648;2023-07-13T12:19:53;31.90;99.90
3684;DHT22;1858;48.716;9.648;2023-07-13T12:22:21;31.70;99.90
3684;DHT22;1858;48.716;9.648;2023-07-13T12:24:49;31.40;99.90
3684;DHT22;1858;48.716;9.648;2023-07-13T12:27:22;31.40;99.90
3684;DHT22;1858;48.716;9.648;2023-07-13T12:29:58;31.30;99.90
3684;DHT22;1858;48.716;9.648;2023-07-13T12:32:29;31.30;99.90
3684;DHT22;1858;48.716;9.648;2023-07-13T12:35:07;31.10;99.90
3684;DHT22;1858;48.716;9.648;2023-07-13T12:37:26;31.10;99.90
3684;DHT22;1858;48.716;9.648;2023-07-13T12:39:55;30.80;99.90
3684;DHT22;1858;48.716;9.648;2023-07-13T12:42:25;30.90;99.90
3684;DHT22;1858;48.716;9.648;2023-07-13T12:44:59;30.70;99.90
3684;DHT22;1858;48.716;9.648;2023-07-13T12:47:57;30.50;99.90
3684;DHT22;1858;48.716;9.648;2023-07-13T12:50:27;30.50;99.90
3684;DHT22;1858;48.716;9.648;2023-07-13T12:52:51;30.30;99.90
3684;DHT22;1858;48.716;9.648;2023-07-13T12:55:47;30.50;99.90
3684;DHT22;1858;48.716;9.648;2023-07-13T12:58:13;30.50;99.90
3684;DHT22;1858;48.716;9.648;2023-07-13T13:00:39;30.60;99.90
3684;DHT22;1858;48.716;9.648;2023-07-13T13:03:16;30.80;99.90
3684;DHT22;1858;48.716;9.648;2023-07-13T13:05:36;30.60;99.90
3684;DHT22;1858;48.716;9.648;2023-07-13T13:08:04;30.60;99.90
3684;DHT22;1858;48.716;9.648;2023-07-13T13:10:32;30.40;99.90
3684;DHT22;1858;48.716;9.648;2023-07-13T13:13:02;30.50;99.90
3684;DHT22;1858;48.716;9.648;2023-07-13T13:15:29;30.70;99.90
3684;DHT22;1858;48.716;9.648;2023-07-13T13:17:57;30.70;99.90
3684;DHT22;1858;48.716;9.648;2023-07-13T13:20:25;30.70;99.90
3684;DHT22;1858;48.716;9.648;2023-07-13T13:22:53;30.60;99.90
3684;DHT22;1858;48.716;9.648;2023-07-13T13:25:21;30.40;99.90
3684;DHT22;1858;48.716;9.648;2023-07-13T13:27:49;30.70;99.90
3684;DHT22;1858;48.716;9.648;2023-07-13T13:30:17;30.80;99.90
3684;DHT22;1858;48.716;9.648;2023-07-13T13:32:47;30.70;99.90
3684;DHT22;1858;48.716;9.648;2023-07-13T13:35:15;30.60;99.90
3684;DHT22;1858;48.716;9.648;2023-07-13T13:37:44;30.40;99.90
3684;DHT22;1858;48.716;9.648;2023-07-13T13:40:13;30.50;99.90
3684;DHT22;1858;48.716;9.648;2023-07-13T13:42:41;30.80;99.90
3684;DHT22;1858;48.716;9.648;2023-07-13T13:45:09;30.60;99.90
3684;DHT22;1858;48.716;9.648;2023-07-13T13:47:37;30.40;99.90
3684;DHT22;1858;48.716;9.648;2023-07-13T13:50:12;30.10;99.90
3684;DHT22;1858;48.716;9.648;2023-07-13T13:52:41;30.10;99.90
3684;DHT22;1858;48.716;9.648;2023-07-13T13:55:28;30.00;99.90
3684;DHT22;1858;48.716;9.648;2023-07-13T13:57:56;29.70;99.90
3684;DHT22;1858;48.716;9.648;2023-07-13T14:00:24;29.60;99.90
3684;DHT22;1858;48.716;9.648;2023-07-13T14:02:51;29.50;99.90
3684;DHT22;1858;48.716;9.648;2023-07-13T14:05:22;29.40;99.90
3684;DHT22;1858;48.716;9.648;2023-07-13T14:07:50;29.40;99.90
3684;DHT22;1858;48.716;9.648;2023-07-13T14:10:19;29.60;99.90
3684;DHT22;1858;48.716;9.648;2023-07-13T14:12:54;29.60;99.90
3684;DHT22;1858;48.716;9.648;2023-07-13T14:15:42;29.80;99.90
3684;DHT22;1858;48.716;9.648;2023-07-13T14:18:11;29.80;99.90
3684;DHT22;1858;48.716;9.648;2023-07-13T14:20:39;29.90;99.90
3684;DHT22;1858;48.716;9.648;2023-07-13T14:23:07;29.80;99.90
3684;DHT22;1858;48.716;9.648;2023-07-13T14:25:35;29.80;99.90
3684;DHT22;1858;48.716;9.648;2023-07-13T14:28:04;29.80;99.90
3684;DHT22;1858;48.716;9.648;2023-07-13T14:30:52;29.70;99.90
3684;DHT22;1858;48.716;9.648;2023-07-13T14:33:21;29.60;99.90
3684;DHT22;1858;48.716;9.648;2023-07-13T14:35:49;29.70;99.90
3684;DHT22;1858;48.716;9.648;2023-07-13T14:38:18;29.80;99.90
3684;DHT22;1858;48.716;9.648;2023-07-13T14:40:46;29.80;99.90
3684;DHT22;1858;48.716;9.648;2023-07-13T14:43:16;29.40;99.90
3684;DHT22;1858;48.716;9.648;2023-07-13T14:45:45;29.20;99.90
3684;DHT22;1858;48.716;9.648;2023-07-13T14:48:18;29.20;99.90
3684;DHT22;1858;48.716;9.648;2023-07-13T14:50:42;29.40;99.90
3684;DHT22;1858;48.716;9.648;2023-07-13T14:53:13;29.40;99.90
3684;DHT22;1858;48.716;9.648;2023-07-13T14:55:41;29.50;99.90
3684;DHT22;1858;48.716;9.648;2023-07-13T14:58:09;29.50;99.90
3684;DHT22;1858;48.716;9.648;2023-07-13T15:00:37;29.50;99.90
3684;DHT22;1858;48.716;9.648;2023-07-13T15:03:04;29.50;99.90
3684;DHT22;1858;48.716;9.648;2023-07-13T15:05:32;29.10;99.90
3684;DHT22;1858;48.716;9.648;2023-07-13T15:08:02;28.80;99.90
3684;DHT22;1858;48.716;9.648;2023-07-13T15:10:49;28.60;99.90
3684;DHT22;1858;48.716;9.648;2023-07-13T15:13:17;28.70;99.90
3684;DHT22;1858;48.716;9.648;2023-07-13T15:15:51;28.70;99.90
3684;DHT22;1858;48.716;9.648;2023-07-13T15:18:21;28.70;99.90
3684;DHT22;1858;48.716;9.648;2023-07-13T15:20:49;28.80;99.90
3684;DHT22;1858;48.716;9.648;2023-07-13T15:23:18;29.00;99.90
3684;DHT22;1858;48.716;9.648;2023-07-13T15:25:46;29.10;99.90
3684;DHT22;1858;48.716;9.648;2023-07-13T15:28:14;28.90;99.90
3684;DHT22;1858;48.716;9.648;2023-07-13T15:30:44;28.80;99.90
3684;DHT22;1858;48.716;9.648;2023-07-13T15:33:15;28.60;99.90
3684;DHT22;1858;48.716;9.648;2023-07-13T15:35:46;28.40;99.90
3684;DHT22;1858;48.716;9.648;2023-07-13T15:38:22;28.20;99.90
3684;DHT22;1858;48.716;9.648;2023-07-13T15:40:50;28.10;99.90
3684;DHT22;1858;48.716;9.648;2023-07-13T15:43:18;28.00;99.90
3684;DHT22;1858;48.716;9.648;2023-07-13T15:45:46;28.20;99.90
3684;DHT22;1858;48.716;9.648;2023-07-13T15:48:15;28.20;99.90
3684;DHT22;1858;48.716;9.648;2023-07-13T15:50:45;28.30;99.90
3684;DHT22;1858;48.716;9.648;2023-07-13T15:53:15;28.40;99.90
3684;DHT22;1858;48.716;9.648;2023-07-13T15:56:04;28.40;99.90
3684;DHT22;1858;48.716;9.648;2023-07-13T15:58:33;28.20;99.90
3684;DHT22;1858;48.716;9.648;2023-07-13T16:01:00;28.00;99.90
3684;DHT22;1858;48.716;9.648;2023-07-13T16:03:28;27.90;99.90
3684;DHT22;1858;48.716;9.648;2023-07-13T16:05:56;27.70;99.90
3684;DHT22;1858;48.716;9.648;2023-07-13T16:08:27;27.50;99.90
3684;DHT22;1858;48.716;9.648;2023-07-13T16:10:55;27.50;99.90
3684;DHT22;1858;48.716;9.648;2023-07-13T16:13:23;27.50;99.90
3684;DHT22;1858;48.716;9.648;2023-07-13T16:15:53;27.70;99.90
3684;DHT22;1858;48.716;9.648;2023-07-13T16:18:22;27.70;99.90
3684;DHT22;1858;48.716;9.648;2023-07-13T16:20:50;27.70;99.90
3684;DHT22;1858;48.716;9.648;2023-07-13T16:23:19;27.70;99.90
3684;DHT22;1858;48.716;9.648;2023-07-13T16:25:48;27.70;99.90
3684;DHT22;1858;48.716;9.648;2023-07-13T16:28:16;27.70;99.90
3684;DHT22;1858;48.716;9.648;2023-07-13T16:30:43;27.90;99.90
3684;DHT22;1858;48.716;9.648;2023-07-13T16:33:11;28.10;99.90
3684;DHT22;1858;48.716;9.648;2023-07-13T16:35:41;28.30;99.90
3684;DHT22;1858;48.716;9.648;2023-07-13T16:38:15;28.30;99.90
3684;DHT22;1858;48.716;9.648;2023-07-13T16:40:43;28.20;99.90
3684;DHT22;1858;48.716;9.648;2023-07-13T16:43:14;28.00;99.90
3684;DHT22;1858;48.716;9.648;2023-07-13T16:45:42;27.90;99.90
3684;DHT22;1858;48.716;9.648;2023-07-13T16:48:15;27.50;99.90
3684;DHT22;1858;48.716;9.648;2023-07-13T16:50:43;27.50;99.90
3684;DHT22;1858;48.716;9.648;2023-07-13T16:53:20;27.10;99.90
3684;DHT22;1858;48.716;9.648;2023-07-13T16:55:49;27.00;99.90
3684;DHT22;1858;48.716;9.648;2023-07-13T16:58:37;26.90;99.90
3684;DHT22;1858;48.716;9.648;2023-07-13T17:01:04;26.80;99.90
3684;DHT22;1858;48.716;9.648;2023-07-13T17:03:32;26.80;99.90
3684;DHT22;1858;48.716;9.648;2023-07-13T17:06:00;26.60;99.90
3684;DHT22;1858;48.716;9.648;2023-07-13T17:08:30;26.60;99.90
3684;DHT22;1858;48.716;9.648;2023-07-13T17:10:59;26.50;99.90
3684;DHT22;1858;48.716;9.648;2023-07-13T17:13:27;26.60;99.90
3684;DHT22;1858;48.716;9.648;2023-07-13T17:15:56;26.70;99.90
3684;DHT22;1858;48.716;9.648;2023-07-13T17:18:29;26.60;99.90
3684;DHT22;1858;48.716;9.648;2023-07-13T17:20:58;26.50;99.90
3684;DHT22;1858;48.716;9.648;2023-07-13T17:23:26;26.40;99.90